Terminal Aerodrome Forecast
Issued by NWS Twin Cities, MN

Home | Current Version | Previous Version | Graphics & Text | Print | Product List | Glossary On
Versions: 1 2 3 4 5 6 7 8 9 10 11 12 13 14 15 16 17 18 19 20 21 22 23 24 25 26 27
785
FTUS43 KMPX 220730 AAA
TAFMSP
TAF AMD
KMSP 220730Z 2208/2312 16005KT P6SM SCT015 BKN025 OVC050
      TEMPO 2209/2213 5SM BR BKN015
     FM221600 VRB03KT P6SM BKN035=

USA.gov is the U.S. government's official web portal to all federal, state and local government web resources and services.